Aviation Digital Data Service (ADDS)

Output produced by METARs form (1338 UTC 21 August 2019)
found at http://www.aviationweather.gov/metar/data/
 
METAR text: UMMS 211330Z 19008G12MPS CAVOK 29/16 Q1018 R88/CLRD// NOSIG
Conditions at: UMMS (MINSK , BY) observed 1330 UTC 21 August 2019
Temperature: 29.0°C (84°F)
Dewpoint: 16.0°C (61°F) [RH = 45%]
Pressure (altimeter): 30.06 inches Hg (1018.0 mb)
Winds: from the S (190 degrees) at 18 MPH (16 knots; 8.2 m/s)
gusting to 26 MPH (23 knots; 11.8 m/s)
Visibility: 6 or more miles (10+ km)
Ceiling: ceiling and visibility are OK
Clouds: unknown
Weather: no significant weather observed at this time

METAR text: UMMS 211300Z 19008G12MPS CAVOK 29/16 Q1018 R88/CLRD// NOSIG
Conditions at: UMMS (MINSK , BY) observed 1300 UTC 21 August 2019
Temperature: 29.0°C (84°F)
Dewpoint: 16.0°C (61°F) [RH = 45%]
Pressure (altimeter): 30.06 inches Hg (1018.0 mb)
Winds: from the S (190 degrees) at 18 MPH (16 knots; 8.2 m/s)
gusting to 26 MPH (23 knots; 11.8 m/s)
Visibility: 6 or more miles (10+ km)
Ceiling: ceiling and visibility are OK
Clouds: unknown
Weather: no significant weather observed at this time

METAR text: UMMS 211230Z 19009G14MPS CAVOK 29/16 Q1018 R88/D NOSIG
Conditions at: UMMS (MINSK , BY) observed 1230 UTC 21 August 2019
Temperature: 29.0°C (84°F)
Dewpoint: 16.0°C (61°F) [RH = 45%]
Pressure (altimeter): 30.06 inches Hg (1018.0 mb)
Winds: from the S (190 degrees) at 20 MPH (17 knots; 8.7 m/s)
gusting to 31 MPH (27 knots; 13.9 m/s)
Visibility: 6 or more miles (10+ km)
Ceiling: ceiling and visibility are OK
Clouds: unknown
Weather: no significant weather observed at this time

METAR text: UMMS 211200Z 19009G12MPS CAVOK 29/16 Q1018 R88/D NOSIG
Conditions at: UMMS (MINSK , BY) observed 1200 UTC 21 August 2019
Temperature: 29.0°C (84°F)
Dewpoint: 16.0°C (61°F) [RH = 45%]
Pressure (altimeter): 30.06 inches Hg (1018.0 mb)
Winds: from the S (190 degrees) at 20 MPH (17 knots; 8.7 m/s)
gusting to 26 MPH (23 knots; 11.8 m/s)
Visibility: 6 or more miles (10+ km)
Ceiling: ceiling and visibility are OK
Clouds: unknown
Weather: no significant weather observed at this time

METAR text: UMMS 211130Z 20008G11MPS CAVOK 29/17 Q1019 R88/D NOSIG
Conditions at: UMMS (MINSK , BY) observed 1130 UTC 21 August 2019
Temperature: 29.0°C (84°F)
Dewpoint: 17.0°C (63°F) [RH = 48%]
Pressure (altimeter): 30.09 inches Hg (1019.0 mb)
Winds: from the SSW (200 degrees) at 18 MPH (16 knots; 8.2 m/s)
gusting to 24 MPH (21 knots; 10.8 m/s)
Visibility: 6 or more miles (10+ km)
Ceiling: ceiling and visibility are OK
Clouds: unknown
Weather: no significant weather observed at this time

METAR text: UMMS 211100Z 18008G11MPS CAVOK 28/17 Q1019 R88/D NOSIG
Conditions at: UMMS (MINSK , BY) observed 1100 UTC 21 August 2019
Temperature: 28.0°C (82°F)
Dewpoint: 17.0°C (63°F) [RH = 51%]
Pressure (altimeter): 30.09 inches Hg (1019.0 mb)
Winds: from the S (180 degrees) at 18 MPH (16 knots; 8.2 m/s)
gusting to 24 MPH (21 knots; 10.8 m/s)
Visibility: 6 or more miles (10+ km)
Ceiling: ceiling and visibility are OK
Clouds: unknown
Weather: no significant weather observed at this time

METAR text: UMMS 211030Z 18007MPS CAVOK 28/19 Q1019 R88/D NOSIG
Conditions at: UMMS (MINSK , BY) observed 1030 UTC 21 August 2019
Temperature: 28.0°C (82°F)
Dewpoint: 19.0°C (66°F) [RH = 58%]
Pressure (altimeter): 30.09 inches Hg (1019.0 mb)
Winds: from the S (180 degrees) at 16 MPH (14 knots; 7.2 m/s)
Visibility: 6 or more miles (10+ km)
Ceiling: ceiling and visibility are OK
Clouds: unknown
Weather: no significant weather observed at this time

METAR text: UMMS 211000Z 17006G09MPS CAVOK 26/19 Q1020 R88/D NOSIG
Conditions at: UMMS (MINSK , BY) observed 1000 UTC 21 August 2019
Temperature: 26.0°C (79°F)
Dewpoint: 19.0°C (66°F) [RH = 65%]
Pressure (altimeter): 30.12 inches Hg (1020.0 mb)
Winds: from the S (170 degrees) at 14 MPH (12 knots; 6.2 m/s)
gusting to 20 MPH (17 knots; 8.7 m/s)
Visibility: 6 or more miles (10+ km)
Ceiling: ceiling and visibility are OK
Clouds: unknown
Weather: no significant weather observed at this time

METAR text: UMMS 210930Z 17006G09MPS CAVOK 26/19 Q1020 R88/D NOSIG
Conditions at: UMMS (MINSK , BY) observed 0930 UTC 21 August 2019
Temperature: 26.0°C (79°F)
Dewpoint: 19.0°C (66°F) [RH = 65%]
Pressure (altimeter): 30.12 inches Hg (1020.0 mb)
Winds: from the S (170 degrees) at 14 MPH (12 knots; 6.2 m/s)
gusting to 20 MPH (17 knots; 8.7 m/s)
Visibility: 6 or more miles (10+ km)
Ceiling: ceiling and visibility are OK
Clouds: unknown
Weather: no significant weather observed at this time

METAR text: UMMS 210900Z 15005MPS CAVOK 25/20 Q1020 R88/D NOSIG
Conditions at: UMMS (MINSK , BY) observed 0900 UTC 21 August 2019
Temperature: 25.0°C (77°F)
Dewpoint: 20.0°C (68°F) [RH = 74%]
Pressure (altimeter): 30.12 inches Hg (1020.0 mb)
Winds: from the SSE (150 degrees) at 12 MPH (10 knots; 5.1 m/s)
Visibility: 6 or more miles (10+ km)
Ceiling: ceiling and visibility are OK
Clouds: unknown
Weather: no significant weather observed at this time

METAR text: UMMS 210830Z 15004MPS CAVOK 24/20 Q1020 R88/D NOSIG
Conditions at: UMMS (MINSK , BY) observed 0830 UTC 21 August 2019
Temperature: 24.0°C (75°F)
Dewpoint: 20.0°C (68°F) [RH = 78%]
Pressure (altimeter): 30.12 inches Hg (1020.0 mb)
Winds: from the SSE (150 degrees) at 9 MPH (8 knots; 4.1 m/s)
Visibility: 6 or more miles (10+ km)
Ceiling: ceiling and visibility are OK
Clouds: unknown
Weather: no significant weather observed at this time

METAR text: UMMS 210800Z 13004MPS CAVOK 23/20 Q1021 R13R/290050 NOSIG
Conditions at: UMMS (MINSK , BY) observed 0800 UTC 21 August 2019
Temperature: 23.0°C (73°F)
Dewpoint: 20.0°C (68°F) [RH = 83%]
Pressure (altimeter): 30.15 inches Hg (1021.0 mb)
Winds: from the SE (130 degrees) at 9 MPH (8 knots; 4.1 m/s)
Visibility: 6 or more miles (10+ km)
Ceiling: ceiling and visibility are OK
Clouds: unknown
Weather: no significant weather observed at this time

METAR text: UMMS 210730Z 14004MPS 9999 SCT048 22/19 Q1021 R13R/290050 NOSIG
Conditions at: UMMS (MINSK , BY) observed 0730 UTC 21 August 2019
Temperature: 22.0°C (72°F)
Dewpoint: 19.0°C (66°F) [RH = 83%]
Pressure (altimeter): 30.15 inches Hg (1021.0 mb)
Winds: from the SE (140 degrees) at 9 MPH (8 knots; 4.1 m/s)
Visibility: 6 or more miles (10+ km)
Ceiling: at least 12,000 feet AGL
Clouds: scattered clouds at 4800 feet AGL
Weather: no significant weather observed at this time

METAR text: UMMS 210700Z 13004MPS 9999 FEW012 BKN050 21/19 Q1021 R13R/290050 NOSIG
Conditions at: UMMS (MINSK , BY) observed 0700 UTC 21 August 2019
Temperature: 21.0°C (70°F)
Dewpoint: 19.0°C (66°F) [RH = 88%]
Pressure (altimeter): 30.15 inches Hg (1021.0 mb)
Winds: from the SE (130 degrees) at 9 MPH (8 knots; 4.1 m/s)
Visibility: 6 or more miles (10+ km)
Ceiling: 5000 feet AGL
Clouds: few clouds at 1200 feet AGL
broken clouds at 5000 feet AGL
Weather: no significant weather observed at this time

METAR text: UMMS 210630Z 12005MPS 9999 FEW009 BKN050 21/19 Q1021 R13R/290050 NOSIG
Conditions at: UMMS (MINSK , BY) observed 0630 UTC 21 August 2019
Temperature: 21.0°C (70°F)
Dewpoint: 19.0°C (66°F) [RH = 88%]
Pressure (altimeter): 30.15 inches Hg (1021.0 mb)
Winds: from the ESE (120 degrees) at 12 MPH (10 knots; 5.1 m/s)
Visibility: 6 or more miles (10+ km)
Ceiling: 5000 feet AGL
Clouds: few clouds at 900 feet AGL
broken clouds at 5000 feet AGL
Weather: no significant weather observed at this time

METAR text: UMMS 210600Z 10004MPS 9999 FEW007 20/19 Q1022 R31L/290050 NOSIG
Conditions at: UMMS (MINSK , BY) observed 0600 UTC 21 August 2019
Temperature: 20.0°C (68°F)
Dewpoint: 19.0°C (66°F) [RH = 94%]
Pressure (altimeter): 30.18 inches Hg (1022.0 mb)
Winds: from the E (100 degrees) at 9 MPH (8 knots; 4.1 m/s)
Visibility: 6 or more miles (10+ km)
Ceiling: at least 12,000 feet AGL
Clouds: few clouds at 700 feet AGL
Weather: no significant weather observed at this time

METAR text: UMMS 210530Z 09003MPS CAVOK 20/19 Q1022 R31L/290050 NOSIG
Conditions at: UMMS (MINSK , BY) observed 0530 UTC 21 August 2019
Temperature: 20.0°C (68°F)
Dewpoint: 19.0°C (66°F) [RH = 94%]
Pressure (altimeter): 30.18 inches Hg (1022.0 mb)
Winds: from the E (90 degrees) at 7 MPH (6 knots; 3.1 m/s)
Visibility: 6 or more miles (10+ km)
Ceiling: ceiling and visibility are OK
Clouds: unknown
Weather: no significant weather observed at this time

METAR text: UMMS 210500Z 09003MPS 070V130 CAVOK 19/18 Q1022 R31L/290050 NOSIG
Conditions at: UMMS (MINSK , BY) observed 0500 UTC 21 August 2019
Temperature: 19.0°C (66°F)
Dewpoint: 18.0°C (64°F) [RH = 94%]
Pressure (altimeter): 30.18 inches Hg (1022.0 mb)
Winds: from the E (90 degrees) at 7 MPH (6 knots; 3.1 m/s)
Visibility: 6 or more miles (10+ km)
Ceiling: ceiling and visibility are OK
Clouds: unknown
Weather: no significant weather observed at this time

METAR text: UMMS 210430Z 09003MPS CAVOK 19/18 Q1022 R31L/290050 NOSIG
Conditions at: UMMS (MINSK , BY) observed 0430 UTC 21 August 2019
Temperature: 19.0°C (66°F)
Dewpoint: 18.0°C (64°F) [RH = 94%]
Pressure (altimeter): 30.18 inches Hg (1022.0 mb)
Winds: from the E (90 degrees) at 7 MPH (6 knots; 3.1 m/s)
Visibility: 6 or more miles (10+ km)
Ceiling: ceiling and visibility are OK
Clouds: unknown
Weather: no significant weather observed at this time

METAR text: UMMS 210400Z 10002MPS CAVOK 19/18 Q1022 R31L/290050 NOSIG
Conditions at: UMMS (MINSK , BY) observed 0400 UTC 21 August 2019
Temperature: 19.0°C (66°F)
Dewpoint: 18.0°C (64°F) [RH = 94%]
Pressure (altimeter): 30.18 inches Hg (1022.0 mb)
Winds: from the E (100 degrees) at 5 MPH (4 knots; 2.1 m/s)
Visibility: 6 or more miles (10+ km)
Ceiling: ceiling and visibility are OK
Clouds: unknown
Weather: no significant weather observed at this time

METAR text: UMMS 210330Z 10002MPS CAVOK 19/18 Q1022 R31L/290050 NOSIG
Conditions at: UMMS (MINSK , BY) observed 0330 UTC 21 August 2019
Temperature: 19.0°C (66°F)
Dewpoint: 18.0°C (64°F) [RH = 94%]
Pressure (altimeter): 30.18 inches Hg (1022.0 mb)
Winds: from the E (100 degrees) at 5 MPH (4 knots; 2.1 m/s)
Visibility: 6 or more miles (10+ km)
Ceiling: ceiling and visibility are OK
Clouds: unknown
Weather: no significant weather observed at this time

METAR text: UMMS 210300Z 09002MPS CAVOK 18/18 Q1022 R31L/290050 NOSIG
Conditions at: UMMS (MINSK , BY) observed 0300 UTC 21 August 2019
Temperature: 18.0°C (64°F)
Dewpoint: 18.0°C (64°F) [RH = 100%]
Pressure (altimeter): 30.18 inches Hg (1022.0 mb)
Winds: from the E (90 degrees) at 5 MPH (4 knots; 2.1 m/s)
Visibility: 6 or more miles (10+ km)
Ceiling: ceiling and visibility are OK
Clouds: unknown
Weather: no significant weather observed at this time

METAR text: UMMS 210230Z VRB01MPS CAVOK 18/18 Q1023 R31L/290050 NOSIG
Conditions at: UMMS (MINSK , BY) observed 0230 UTC 21 August 2019
Temperature: 18.0°C (64°F)
Dewpoint: 18.0°C (64°F) [RH = 100%]
Pressure (altimeter): 30.21 inches Hg (1023.0 mb)
Winds: variable direction winds at 2 MPH (2 knots; 1.0 m/s)
Visibility: 6 or more miles (10+ km)
Ceiling: ceiling and visibility are OK
Clouds: unknown
Weather: no significant weather observed at this time

METAR text: UMMS 210200Z 09001MPS 9999 BKN038 18/18 Q1023 R31L/290050 NOSIG
Conditions at: UMMS (MINSK , BY) observed 0200 UTC 21 August 2019
Temperature: 18.0°C (64°F)
Dewpoint: 18.0°C (64°F) [RH = 100%]
Pressure (altimeter): 30.21 inches Hg (1023.0 mb)
Winds: from the E (90 degrees) at 2 MPH (2 knots; 1.0 m/s)
Visibility: 6 or more miles (10+ km)
Ceiling: 3800 feet AGL
Clouds: broken clouds at 3800 feet AGL
Weather: no significant weather observed at this time

METAR text: UMMS 210130Z 03002MPS 9999 BKN040 19/19 Q1023 R31L/290050 NOSIG
Conditions at: UMMS (MINSK , BY) observed 0130 UTC 21 August 2019
Temperature: 19.0°C (66°F)
Dewpoint: 19.0°C (66°F) [RH = 100%]
Pressure (altimeter): 30.21 inches Hg (1023.0 mb)
Winds: from the NNE (30 degrees) at 5 MPH (4 knots; 2.1 m/s)
Visibility: 6 or more miles (10+ km)
Ceiling: 4000 feet AGL
Clouds: broken clouds at 4000 feet AGL
Weather: no significant weather observed at this time

METAR text: UMMS 210100Z VRB01MPS 9999 BKN039 19/18 Q1023 R31L/290050 NOSIG
Conditions at: UMMS (MINSK , BY) observed 0100 UTC 21 August 2019
Temperature: 19.0°C (66°F)
Dewpoint: 18.0°C (64°F) [RH = 94%]
Pressure (altimeter): 30.21 inches Hg (1023.0 mb)
Winds: variable direction winds at 2 MPH (2 knots; 1.0 m/s)
Visibility: 6 or more miles (10+ km)
Ceiling: 3900 feet AGL
Clouds: broken clouds at 3900 feet AGL
Weather: no significant weather observed at this time

METAR text: UMMS 210030Z 04001MPS 9999 BKN038 19/18 Q1023 R31L/290050 NOSIG
Conditions at: UMMS (MINSK , BY) observed 0030 UTC 21 August 2019
Temperature: 19.0°C (66°F)
Dewpoint: 18.0°C (64°F) [RH = 94%]
Pressure (altimeter): 30.21 inches Hg (1023.0 mb)
Winds: from the NE (40 degrees) at 2 MPH (2 knots; 1.0 m/s)
Visibility: 6 or more miles (10+ km)
Ceiling: 3800 feet AGL
Clouds: broken clouds at 3800 feet AGL
Weather: no significant weather observed at this time

METAR text: UMMS 210000Z VRB01MPS 9999 BKN039 19/19 Q1023 R31L/290050 NOSIG
Conditions at: UMMS (MINSK , BY) observed 0000 UTC 21 August 2019
Temperature: 19.0°C (66°F)
Dewpoint: 19.0°C (66°F) [RH = 100%]
Pressure (altimeter): 30.21 inches Hg (1023.0 mb)
Winds: variable direction winds at 2 MPH (2 knots; 1.0 m/s)
Visibility: 6 or more miles (10+ km)
Ceiling: 3900 feet AGL
Clouds: broken clouds at 3900 feet AGL
Weather: no significant weather observed at this time

METAR text: UMMS 202330Z VRB01MPS 9999 BKN038 19/18 Q1023 R31L/290050 NOSIG
Conditions at: UMMS (MINSK , BY) observed 2330 UTC 20 August 2019
Temperature: 19.0°C (66°F)
Dewpoint: 18.0°C (64°F) [RH = 94%]
Pressure (altimeter): 30.21 inches Hg (1023.0 mb)
Winds: variable direction winds at 2 MPH (2 knots; 1.0 m/s)
Visibility: 6 or more miles (10+ km)
Ceiling: 3800 feet AGL
Clouds: broken clouds at 3800 feet AGL
Weather: no significant weather observed at this time

METAR text: UMMS 202300Z VRB01MPS 9999 BKN038 19/19 Q1023 R31L/290050 NOSIG
Conditions at: UMMS (MINSK , BY) observed 2300 UTC 20 August 2019
Temperature: 19.0°C (66°F)
Dewpoint: 19.0°C (66°F) [RH = 100%]
Pressure (altimeter): 30.21 inches Hg (1023.0 mb)
Winds: variable direction winds at 2 MPH (2 knots; 1.0 m/s)
Visibility: 6 or more miles (10+ km)
Ceiling: 3800 feet AGL
Clouds: broken clouds at 3800 feet AGL
Weather: no significant weather observed at this time

METAR text: UMMS 202230Z 00000MPS 9999 BKN038 19/18 Q1023 R31L/290050 NOSIG
Conditions at: UMMS (MINSK , BY) observed 2230 UTC 20 August 2019
Temperature: 19.0°C (66°F)
Dewpoint: 18.0°C (64°F) [RH = 94%]
Pressure (altimeter): 30.21 inches Hg (1023.0 mb)
Winds: calm
Visibility: 6 or more miles (10+ km)
Ceiling: 3800 feet AGL
Clouds: broken clouds at 3800 feet AGL
Weather: no significant weather observed at this time

METAR text: UMMS 202200Z 00000MPS 9999 SCT039 19/19 Q1024 R31L/290050 NOSIG
Conditions at: UMMS (MINSK , BY) observed 2200 UTC 20 August 2019
Temperature: 19.0°C (66°F)
Dewpoint: 19.0°C (66°F) [RH = 100%]
Pressure (altimeter): 30.24 inches Hg (1024.0 mb)
Winds: calm
Visibility: 6 or more miles (10+ km)
Ceiling: at least 12,000 feet AGL
Clouds: scattered clouds at 3900 feet AGL
Weather: no significant weather observed at this time

METAR text: UMMS 202130Z 03002MPS 9999 SCT045 19/18 Q1023 R31L/290050 NOSIG
Conditions at: UMMS (MINSK , BY) observed 2130 UTC 20 August 2019
Temperature: 19.0°C (66°F)
Dewpoint: 18.0°C (64°F) [RH = 94%]
Pressure (altimeter): 30.21 inches Hg (1023.0 mb)
Winds: from the NNE (30 degrees) at 5 MPH (4 knots; 2.1 m/s)
Visibility: 6 or more miles (10+ km)
Ceiling: at least 12,000 feet AGL
Clouds: scattered clouds at 4500 feet AGL
Weather: no significant weather observed at this time

METAR text: UMMS 202100Z VRB01MPS 9999 BKN044 19/19 Q1024 R31L/290050 NOSIG
Conditions at: UMMS (MINSK , BY) observed 2100 UTC 20 August 2019
Temperature: 19.0°C (66°F)
Dewpoint: 19.0°C (66°F) [RH = 100%]
Pressure (altimeter): 30.24 inches Hg (1024.0 mb)
Winds: variable direction winds at 2 MPH (2 knots; 1.0 m/s)
Visibility: 6 or more miles (10+ km)
Ceiling: 4400 feet AGL
Clouds: broken clouds at 4400 feet AGL
Weather: no significant weather observed at this time

METAR text: UMMS 202030Z VRB01MPS 9999 BKN042 19/18 Q1023 R31L/290050 NOSIG
Conditions at: UMMS (MINSK , BY) observed 2030 UTC 20 August 2019
Temperature: 19.0°C (66°F)
Dewpoint: 18.0°C (64°F) [RH = 94%]
Pressure (altimeter): 30.21 inches Hg (1023.0 mb)
Winds: variable direction winds at 2 MPH (2 knots; 1.0 m/s)
Visibility: 6 or more miles (10+ km)
Ceiling: 4200 feet AGL
Clouds: broken clouds at 4200 feet AGL
Weather: no significant weather observed at this time

METAR text: UMMS 202000Z 00000MPS 9999 BKN045 19/19 Q1024 R31L/290050 NOSIG
Conditions at: UMMS (MINSK , BY) observed 2000 UTC 20 August 2019
Temperature: 19.0°C (66°F)
Dewpoint: 19.0°C (66°F) [RH = 100%]
Pressure (altimeter): 30.24 inches Hg (1024.0 mb)
Winds: calm
Visibility: 6 or more miles (10+ km)
Ceiling: 4500 feet AGL
Clouds: broken clouds at 4500 feet AGL
Weather: no significant weather observed at this time

METAR text: UMMS 201930Z VRB01MPS 9999 BKN044 19/19 Q1024 R31L/290050 NOSIG
Conditions at: UMMS (MINSK , BY) observed 1930 UTC 20 August 2019
Temperature: 19.0°C (66°F)
Dewpoint: 19.0°C (66°F) [RH = 100%]
Pressure (altimeter): 30.24 inches Hg (1024.0 mb)
Winds: variable direction winds at 2 MPH (2 knots; 1.0 m/s)
Visibility: 6 or more miles (10+ km)
Ceiling: 4400 feet AGL
Clouds: broken clouds at 4400 feet AGL
Weather: no significant weather observed at this time

METAR text: UMMS 201900Z VRB01MPS 9999 SCT043 19/18 Q1024 R31L/290050 NOSIG
Conditions at: UMMS (MINSK , BY) observed 1900 UTC 20 August 2019
Temperature: 19.0°C (66°F)
Dewpoint: 18.0°C (64°F) [RH = 94%]
Pressure (altimeter): 30.24 inches Hg (1024.0 mb)
Winds: variable direction winds at 2 MPH (2 knots; 1.0 m/s)
Visibility: 6 or more miles (10+ km)
Ceiling: at least 12,000 feet AGL
Clouds: scattered clouds at 4300 feet AGL
Weather: no significant weather observed at this time

METAR text: UMMS 201830Z 00000MPS 9999 SCT038 20/19 Q1023 R31L/290050 NOSIG
Conditions at: UMMS (MINSK , BY) observed 1830 UTC 20 August 2019
Temperature: 20.0°C (68°F)
Dewpoint: 19.0°C (66°F) [RH = 94%]
Pressure (altimeter): 30.21 inches Hg (1023.0 mb)
Winds: calm
Visibility: 6 or more miles (10+ km)
Ceiling: at least 12,000 feet AGL
Clouds: scattered clouds at 3800 feet AGL
Weather: no significant weather observed at this time

METAR text: UMMS 201800Z VRB01MPS 9999 SCT040 21/18 Q1023 R31L/290050 NOSIG
Conditions at: UMMS (MINSK , BY) observed 1800 UTC 20 August 2019
Temperature: 21.0°C (70°F)
Dewpoint: 18.0°C (64°F) [RH = 83%]
Pressure (altimeter): 30.21 inches Hg (1023.0 mb)
Winds: variable direction winds at 2 MPH (2 knots; 1.0 m/s)
Visibility: 6 or more miles (10+ km)
Ceiling: at least 12,000 feet AGL
Clouds: scattered clouds at 4000 feet AGL
Weather: no significant weather observed at this time

METAR text: UMMS 201730Z VRB01MPS 9999 SCT041 21/18 Q1023 R31L/290050 NOSIG
Conditions at: UMMS (MINSK , BY) observed 1730 UTC 20 August 2019
Temperature: 21.0°C (70°F)
Dewpoint: 18.0°C (64°F) [RH = 83%]
Pressure (altimeter): 30.21 inches Hg (1023.0 mb)
Winds: variable direction winds at 2 MPH (2 knots; 1.0 m/s)
Visibility: 6 or more miles (10+ km)
Ceiling: at least 12,000 feet AGL
Clouds: scattered clouds at 4100 feet AGL
Weather: no significant weather observed at this time

METAR text: UMMS 201700Z 30002MPS 9999 FEW040 22/19 Q1023 R31L/290050 NOSIG
Conditions at: UMMS (MINSK , BY) observed 1700 UTC 20 August 2019
Temperature: 22.0°C (72°F)
Dewpoint: 19.0°C (66°F) [RH = 83%]
Pressure (altimeter): 30.21 inches Hg (1023.0 mb)
Winds: from the WNW (300 degrees) at 5 MPH (4 knots; 2.1 m/s)
Visibility: 6 or more miles (10+ km)
Ceiling: at least 12,000 feet AGL
Clouds: few clouds at 4000 feet AGL
Weather: no significant weather observed at this time

METAR text: UMMS 201630Z 31002MPS 9999 FEW040 23/19 Q1023 R31L/290050 NOSIG
Conditions at: UMMS (MINSK , BY) observed 1630 UTC 20 August 2019
Temperature: 23.0°C (73°F)
Dewpoint: 19.0°C (66°F) [RH = 78%]
Pressure (altimeter): 30.21 inches Hg (1023.0 mb)
Winds: from the NW (310 degrees) at 5 MPH (4 knots; 2.1 m/s)
Visibility: 6 or more miles (10+ km)
Ceiling: at least 12,000 feet AGL
Clouds: few clouds at 4000 feet AGL
Weather: no significant weather observed at this time

METAR text: UMMS 201600Z 32002MPS 280V350 9999 SCT043 23/18 Q1023 R31L/290050 NOSIG
Conditions at: UMMS (MINSK , BY) observed 1600 UTC 20 August 2019
Temperature: 23.0°C (73°F)
Dewpoint: 18.0°C (64°F) [RH = 73%]
Pressure (altimeter): 30.21 inches Hg (1023.0 mb)
Winds: from the NW (320 degrees) at 5 MPH (4 knots; 2.1 m/s)
Visibility: 6 or more miles (10+ km)
Ceiling: at least 12,000 feet AGL
Clouds: scattered clouds at 4300 feet AGL
Weather: no significant weather observed at this time

METAR text: UMMS 201530Z 29002MPS 9999 SCT030 23/18 Q1023 R31L/290050 NOSIG
Conditions at: UMMS (MINSK , BY) observed 1530 UTC 20 August 2019
Temperature: 23.0°C (73°F)
Dewpoint: 18.0°C (64°F) [RH = 73%]
Pressure (altimeter): 30.21 inches Hg (1023.0 mb)
Winds: from the WNW (290 degrees) at 5 MPH (4 knots; 2.1 m/s)
Visibility: 6 or more miles (10+ km)
Ceiling: at least 12,000 feet AGL
Clouds: scattered clouds at 3000 feet AGL
Weather: no significant weather observed at this time

METAR text: UMMS 201500Z VRB01MPS 9999 SCT032 24/18 Q1023 R31R/CLRD// NOSIG
Conditions at: UMMS (MINSK , BY) observed 1500 UTC 20 August 2019
Temperature: 24.0°C (75°F)
Dewpoint: 18.0°C (64°F) [RH = 69%]
Pressure (altimeter): 30.21 inches Hg (1023.0 mb)
Winds: variable direction winds at 2 MPH (2 knots; 1.0 m/s)
Visibility: 6 or more miles (10+ km)
Ceiling: at least 12,000 feet AGL
Clouds: scattered clouds at 3200 feet AGL
Weather: no significant weather observed at this time

METAR text: UMMS 201430Z VRB01MPS 9999 SCT028 24/18 Q1022 R31R/CLRD// NOSIG
Conditions at: UMMS (MINSK , BY) observed 1430 UTC 20 August 2019
Temperature: 24.0°C (75°F)
Dewpoint: 18.0°C (64°F) [RH = 69%]
Pressure (altimeter): 30.18 inches Hg (1022.0 mb)
Winds: variable direction winds at 2 MPH (2 knots; 1.0 m/s)
Visibility: 6 or more miles (10+ km)
Ceiling: at least 12,000 feet AGL
Clouds: scattered clouds at 2800 feet AGL
Weather: no significant weather observed at this time

METAR text: UMMS 201400Z 28002MPS 230V310 9999 BKN029 23/18 Q1023 R31R/CLRD// NOSIG
Conditions at: UMMS (MINSK , BY) observed 1400 UTC 20 August 2019
Temperature: 23.0°C (73°F)
Dewpoint: 18.0°C (64°F) [RH = 73%]
Pressure (altimeter): 30.21 inches Hg (1023.0 mb)
Winds: from the W (280 degrees) at 5 MPH (4 knots; 2.1 m/s)
Visibility: 6 or more miles (10+ km)
Ceiling: 2900 feet AGL
Clouds: broken clouds at 2900 feet AGL
Weather: no significant weather observed at this time

METAR text: UMMS 201330Z 29003MPS 240V320 9999 BKN035 23/18 Q1023 R13L/CLRD// NOSIG
Conditions at: UMMS (MINSK , BY) observed 1330 UTC 20 August 2019
Temperature: 23.0°C (73°F)
Dewpoint: 18.0°C (64°F) [RH = 73%]
Pressure (altimeter): 30.21 inches Hg (1023.0 mb)
Winds: from the WNW (290 degrees) at 7 MPH (6 knots; 3.1 m/s)
Visibility: 6 or more miles (10+ km)
Ceiling: 3500 feet AGL
Clouds: broken clouds at 3500 feet AGL
Weather: no significant weather observed at this time

METAR text: UMMS 201300Z 24002MPS 190V300 9999 BKN028 23/18 Q1023 R13L/CLRD// NOSIG
Conditions at: UMMS (MINSK , BY) observed 1300 UTC 20 August 2019
Temperature: 23.0°C (73°F)
Dewpoint: 18.0°C (64°F) [RH = 73%]
Pressure (altimeter): 30.21 inches Hg (1023.0 mb)
Winds: from the WSW (240 degrees) at 5 MPH (4 knots; 2.1 m/s)
Visibility: 6 or more miles (10+ km)
Ceiling: 2800 feet AGL
Clouds: broken clouds at 2800 feet AGL
Weather: no significant weather observed at this time

METAR text: UMMS 201230Z 26004MPS 220V290 9999 BKN027 24/18 Q1022 R13L/CLRD// NOSIG
Conditions at: UMMS (MINSK , BY) observed 1230 UTC 20 August 2019
Temperature: 24.0°C (75°F)
Dewpoint: 18.0°C (64°F) [RH = 69%]
Pressure (altimeter): 30.18 inches Hg (1022.0 mb)
Winds: from the W (260 degrees) at 9 MPH (8 knots; 4.1 m/s)
Visibility: 6 or more miles (10+ km)
Ceiling: 2700 feet AGL
Clouds: broken clouds at 2700 feet AGL
Weather: no significant weather observed at this time

METAR text: UMMS 201200Z 22003G06MPS 190V250 9999 BKN025 23/18 Q1023 R13L/CLRD// NOSIG
Conditions at: UMMS (MINSK , BY) observed 1200 UTC 20 August 2019
Temperature: 23.0°C (73°F)
Dewpoint: 18.0°C (64°F) [RH = 73%]
Pressure (altimeter): 30.21 inches Hg (1023.0 mb)
Winds: from the SW (220 degrees) at 7 MPH (6 knots; 3.1 m/s)
gusting to 14 MPH (12 knots; 6.2 m/s)
Visibility: 6 or more miles (10+ km)
Ceiling: 2500 feet AGL
Clouds: broken clouds at 2500 feet AGL
Weather: no significant weather observed at this time

METAR text: UMMS 201130Z 26002G05MPS 200V300 9999 SCT021 23/17 Q1023 R13L/CLRD// NOSIG
Conditions at: UMMS (MINSK , BY) observed 1130 UTC 20 August 2019
Temperature: 23.0°C (73°F)
Dewpoint: 17.0°C (63°F) [RH = 69%]
Pressure (altimeter): 30.21 inches Hg (1023.0 mb)
Winds: from the W (260 degrees) at 5 MPH (4 knots; 2.1 m/s)
gusting to 12 MPH (10 knots; 5.1 m/s)
Visibility: 6 or more miles (10+ km)
Ceiling: at least 12,000 feet AGL
Clouds: scattered clouds at 2100 feet AGL
Weather: no significant weather observed at this time

METAR text: UMMS 201100Z 22002G05MPS 170V260 9999 SCT018 22/18 Q1023 R13L/CLRD// NOSIG
Conditions at: UMMS (MINSK , BY) observed 1100 UTC 20 August 2019
Temperature: 22.0°C (72°F)
Dewpoint: 18.0°C (64°F) [RH = 78%]
Pressure (altimeter): 30.21 inches Hg (1023.0 mb)
Winds: from the SW (220 degrees) at 5 MPH (4 knots; 2.1 m/s)
gusting to 12 MPH (10 knots; 5.1 m/s)
Visibility: 6 or more miles (10+ km)
Ceiling: at least 12,000 feet AGL
Clouds: scattered clouds at 1800 feet AGL
Weather: no significant weather observed at this time

METAR text: UMMS 201030Z 21003G06MPS 170V250 9999 BKN017 22/19 Q1023 R13L/CLRD// NOSIG
Conditions at: UMMS (MINSK , BY) observed 1030 UTC 20 August 2019
Temperature: 22.0°C (72°F)
Dewpoint: 19.0°C (66°F) [RH = 83%]
Pressure (altimeter): 30.21 inches Hg (1023.0 mb)
Winds: from the SSW (210 degrees) at 7 MPH (6 knots; 3.1 m/s)
gusting to 14 MPH (12 knots; 6.2 m/s)
Visibility: 6 or more miles (10+ km)
Ceiling: 1700 feet AGL
Clouds: broken clouds at 1700 feet AGL
Weather: no significant weather observed at this time

METAR text: UMMS 201000Z 23003MPS 200V260 9999 BKN014 21/19 Q1023 R13L/CLRD// NOSIG
Conditions at: UMMS (MINSK , BY) observed 1000 UTC 20 August 2019
Temperature: 21.0°C (70°F)
Dewpoint: 19.0°C (66°F) [RH = 88%]
Pressure (altimeter): 30.21 inches Hg (1023.0 mb)
Winds: from the SW (230 degrees) at 7 MPH (6 knots; 3.1 m/s)
Visibility: 6 or more miles (10+ km)
Ceiling: 1400 feet AGL
Clouds: broken clouds at 1400 feet AGL
Weather: no significant weather observed at this time

METAR text: UMMS 200930Z 22002MPS 190V270 9999 BKN014 21/19 Q1022 R13L/CLRD// NOSIG
Conditions at: UMMS (MINSK , BY) observed 0930 UTC 20 August 2019
Temperature: 21.0°C (70°F)
Dewpoint: 19.0°C (66°F) [RH = 88%]
Pressure (altimeter): 30.18 inches Hg (1022.0 mb)
Winds: from the SW (220 degrees) at 5 MPH (4 knots; 2.1 m/s)
Visibility: 6 or more miles (10+ km)
Ceiling: 1400 feet AGL
Clouds: broken clouds at 1400 feet AGL
Weather: no significant weather observed at this time

METAR text: UMMS 200900Z 24002MPS 180V270 9999 BKN011 21/18 Q1022 R13L/CLRD// NOSIG
Conditions at: UMMS (MINSK , BY) observed 0900 UTC 20 August 2019
Temperature: 21.0°C (70°F)
Dewpoint: 18.0°C (64°F) [RH = 83%]
Pressure (altimeter): 30.18 inches Hg (1022.0 mb)
Winds: from the WSW (240 degrees) at 5 MPH (4 knots; 2.1 m/s)
Visibility: 6 or more miles (10+ km)
Ceiling: 1100 feet AGL
Clouds: broken clouds at 1100 feet AGL
Weather: no significant weather observed at this time

METAR text: UMMS 200837Z 26002MPS 210V320 9999 BKN010 20/18 Q1022 R13L/CLRD// NOSIG
Conditions at: UMMS (MINSK , BY) observed 0837 UTC 20 August 2019
Temperature: 20.0°C (68°F)
Dewpoint: 18.0°C (64°F) [RH = 88%]
Pressure (altimeter): 30.18 inches Hg (1022.0 mb)
Winds: from the W (260 degrees) at 5 MPH (4 knots; 2.1 m/s)
Visibility: 6 or more miles (10+ km)
Ceiling: 1000 feet AGL
Clouds: broken clouds at 1000 feet AGL
Weather: no significant weather observed at this time

METAR text: UMMS 200830Z 29002MPS 210V330 9999 SCT009 20/18 Q1022 R13L/CLRD// NOSIG
Conditions at: UMMS (MINSK , BY) observed 0830 UTC 20 August 2019
Temperature: 20.0°C (68°F)
Dewpoint: 18.0°C (64°F) [RH = 88%]
Pressure (altimeter): 30.18 inches Hg (1022.0 mb)
Winds: from the WNW (290 degrees) at 5 MPH (4 knots; 2.1 m/s)
Visibility: 6 or more miles (10+ km)
Ceiling: at least 12,000 feet AGL
Clouds: scattered clouds at 900 feet AGL
Weather: no significant weather observed at this time

METAR text: UMMS 200824Z 29003MPS 9999 SCT009 20/18 Q1022 R13L/CLRD// NOSIG
Conditions at: UMMS (MINSK , BY) observed 0824 UTC 20 August 2019
Temperature: 20.0°C (68°F)
Dewpoint: 18.0°C (64°F) [RH = 88%]
Pressure (altimeter): 30.18 inches Hg (1022.0 mb)
Winds: from the WNW (290 degrees) at 7 MPH (6 knots; 3.1 m/s)
Visibility: 6 or more miles (10+ km)
Ceiling: at least 12,000 feet AGL
Clouds: scattered clouds at 900 feet AGL
Weather: no significant weather observed at this time

METAR text: UMMS 200800Z 28003MPS 240V310 9999 BKN008 19/18 Q1021 R13L/CLRD// NOSIG
Conditions at: UMMS (MINSK , BY) observed 0800 UTC 20 August 2019
Temperature: 19.0°C (66°F)
Dewpoint: 18.0°C (64°F) [RH = 94%]
Pressure (altimeter): 30.15 inches Hg (1021.0 mb)
Winds: from the W (280 degrees) at 7 MPH (6 knots; 3.1 m/s)
Visibility: 6 or more miles (10+ km)
Ceiling: 800 feet AGL
Clouds: broken clouds at 800 feet AGL
Weather: no significant weather observed at this time

METAR text: UMMS 200730Z 25004MPS 220V300 9999 BKN009 19/18 Q1021 R13L/CLRD// NOSIG
Conditions at: UMMS (MINSK , BY) observed 0730 UTC 20 August 2019
Temperature: 19.0°C (66°F)
Dewpoint: 18.0°C (64°F) [RH = 94%]
Pressure (altimeter): 30.15 inches Hg (1021.0 mb)
Winds: from the WSW (250 degrees) at 9 MPH (8 knots; 4.1 m/s)
Visibility: 6 or more miles (10+ km)
Ceiling: 900 feet AGL
Clouds: broken clouds at 900 feet AGL
Weather: no significant weather observed at this time

METAR text: UMMS 200700Z 21003G06MPS 9999 BKN006 19/18 Q1021 R13L/CLRD// NOSIG RMK QBB200
Conditions at: UMMS (MINSK , BY) observed 0700 UTC 20 August 2019
Temperature: 19.0°C (66°F)
Dewpoint: 18.0°C (64°F) [RH = 94%]
Pressure (altimeter): 30.15 inches Hg (1021.0 mb)
Winds: from the SSW (210 degrees) at 7 MPH (6 knots; 3.1 m/s)
gusting to 14 MPH (12 knots; 6.2 m/s)
Visibility: 6 or more miles (10+ km)
Ceiling: 600 feet AGL
Clouds: broken clouds at 600 feet AGL
Weather: no significant weather observed at this time

METAR text: UMMS 200638Z VRB01MPS 9999 BKN007 BKN040 19/18 Q1021 R13R/290050 NOSIG
Conditions at: UMMS (MINSK , BY) observed 0638 UTC 20 August 2019
Temperature: 19.0°C (66°F)
Dewpoint: 18.0°C (64°F) [RH = 94%]
Pressure (altimeter): 30.15 inches Hg (1021.0 mb)
Winds: variable direction winds at 2 MPH (2 knots; 1.0 m/s)
Visibility: 6 or more miles (10+ km)
Ceiling: 700 feet AGL
Clouds: broken clouds at 700 feet AGL
broken clouds at 4000 feet AGL
Weather: no significant weather observed at this time

METAR text: UMMS 200630Z VRB01MPS 9999 FEW007 BKN014 19/18 Q1021 R13R/290050 NOSIG
Conditions at: UMMS (MINSK , BY) observed 0630 UTC 20 August 2019
Temperature: 19.0°C (66°F)
Dewpoint: 18.0°C (64°F) [RH = 94%]
Pressure (altimeter): 30.15 inches Hg (1021.0 mb)
Winds: variable direction winds at 2 MPH (2 knots; 1.0 m/s)
Visibility: 6 or more miles (10+ km)
Ceiling: 1400 feet AGL
Clouds: few clouds at 700 feet AGL
broken clouds at 1400 feet AGL
Weather: no significant weather observed at this time

METAR text: UMMS 200608Z VRB01MPS 9999 FEW006 BKN012 19/18 Q1021 R13R/290050 NOSIG RMK QBB180
Conditions at: UMMS (MINSK , BY) observed 0608 UTC 20 August 2019
Temperature: 19.0°C (66°F)
Dewpoint: 18.0°C (64°F) [RH = 94%]
Pressure (altimeter): 30.15 inches Hg (1021.0 mb)
Winds: variable direction winds at 2 MPH (2 knots; 1.0 m/s)
Visibility: 6 or more miles (10+ km)
Ceiling: 1200 feet AGL
Clouds: few clouds at 600 feet AGL
broken clouds at 1200 feet AGL
Weather: no significant weather observed at this time

METAR text: UMMS 200600Z 19002MPS 150V230 9999 FEW005 BKN018 19/18 Q1021 R13R/290050 NOSIG RMK QBB160
Conditions at: UMMS (MINSK , BY) observed 0600 UTC 20 August 2019
Temperature: 19.0°C (66°F)
Dewpoint: 18.0°C (64°F) [RH = 94%]
Pressure (altimeter): 30.15 inches Hg (1021.0 mb)
Winds: from the S (190 degrees) at 5 MPH (4 knots; 2.1 m/s)
Visibility: 6 or more miles (10+ km)
Ceiling: 1800 feet AGL
Clouds: few clouds at 500 feet AGL
broken clouds at 1800 feet AGL
Weather: no significant weather observed at this time

METAR text: UMMS 200530Z VRB01MPS 9999 FEW004 BKN060CB 18/18 Q1020 R13R/290050 NOSIG RMK QBB130
Conditions at: UMMS (MINSK , BY) observed 0530 UTC 20 August 2019
Temperature: 18.0°C (64°F)
Dewpoint: 18.0°C (64°F) [RH = 100%]
Pressure (altimeter): 30.12 inches Hg (1020.0 mb)
Winds: variable direction winds at 2 MPH (2 knots; 1.0 m/s)
Visibility: 6 or more miles (10+ km)
Ceiling: 6000 feet AGL
Clouds: few clouds at 400 feet AGL
broken clouds at 6000 feet AGL
Weather: no significant weather observed at this time

METAR text: UMMS 200500Z VRB01MPS 9999 -SHRA SCT003 BKN026CB 17/17 Q1020 R13R/290050 NOSIG RMK QBB110
Conditions at: UMMS (MINSK , BY) observed 0500 UTC 20 August 2019
Temperature: 17.0°C (63°F)
Dewpoint: 17.0°C (63°F) [RH = 100%]
Pressure (altimeter): 30.12 inches Hg (1020.0 mb)
Winds: variable direction winds at 2 MPH (2 knots; 1.0 m/s)
Visibility: 6 or more miles (10+ km)
Ceiling: 2600 feet AGL
Clouds: scattered clouds at 300 feet AGL
broken clouds at 2600 feet AGL
Weather: -SHRA  (light rain showers)

METAR text: UMMS 200430Z 12002MPS 9999 -SHRA FEW005 BKN050CB 17/17 Q1020 R13R/290050 TEMPO 1200 TSRA RMK QBB150
Conditions at: UMMS (MINSK , BY) observed 0430 UTC 20 August 2019
Temperature: 17.0°C (63°F)
Dewpoint: 17.0°C (63°F) [RH = 100%]
Pressure (altimeter): 30.12 inches Hg (1020.0 mb)
Winds: from the ESE (120 degrees) at 5 MPH (4 knots; 2.1 m/s)
Visibility: 6 or more miles (10+ km)
Ceiling: 5000 feet AGL
Clouds: few clouds at 500 feet AGL
broken clouds at 5000 feet AGL
Weather: -SHRA  (light rain showers)

METAR text: UMMS 200400Z 14002MPS 110V180 9000 -SHRA SCT006 BKN030CB 17/17 Q1020 R31L/290050 TEMPO 1200 TSRA RMK QBB180
Conditions at: UMMS (MINSK , BY) observed 0400 UTC 20 August 2019
Temperature: 17.0°C (63°F)
Dewpoint: 17.0°C (63°F) [RH = 100%]
Pressure (altimeter): 30.12 inches Hg (1020.0 mb)
Winds: from the SE (140 degrees) at 5 MPH (4 knots; 2.1 m/s)
Visibility: 6 miles ( 9 km)
Ceiling: 3000 feet AGL
Clouds: scattered clouds at 600 feet AGL
broken clouds at 3000 feet AGL
Weather: -SHRA  (light rain showers)

METAR text: UMMS 200330Z 18002MPS 9000 -SHRA SCT003 BKN019CB 17/17 Q1020 R31L/290050 TEMPO 1200 TSRA RMK QBB090
Conditions at: UMMS (MINSK , BY) observed 0330 UTC 20 August 2019
Temperature: 17.0°C (63°F)
Dewpoint: 17.0°C (63°F) [RH = 100%]
Pressure (altimeter): 30.12 inches Hg (1020.0 mb)
Winds: from the S (180 degrees) at 5 MPH (4 knots; 2.1 m/s)
Visibility: 6 miles ( 9 km)
Ceiling: 1900 feet AGL
Clouds: scattered clouds at 300 feet AGL
broken clouds at 1900 feet AGL
Weather: -SHRA  (light rain showers)

METAR text: UMMS 200300Z VRB01MPS 9999 -SHRA BKN050CB 17/17 Q1020 R31L/290050 TEMPO 1200 TSRA
Conditions at: UMMS (MINSK , BY) observed 0300 UTC 20 August 2019
Temperature: 17.0°C (63°F)
Dewpoint: 17.0°C (63°F) [RH = 100%]
Pressure (altimeter): 30.12 inches Hg (1020.0 mb)
Winds: variable direction winds at 2 MPH (2 knots; 1.0 m/s)
Visibility: 6 or more miles (10+ km)
Ceiling: 5000 feet AGL
Clouds: broken clouds at 5000 feet AGL
Weather: -SHRA  (light rain showers)

METAR text: UMMS 200230Z VRB01MPS 9999 -SHRA BKN046CB 17/17 Q1019 R31L/290050 TEMPO 1200 TSRA
Conditions at: UMMS (MINSK , BY) observed 0230 UTC 20 August 2019
Temperature: 17.0°C (63°F)
Dewpoint: 17.0°C (63°F) [RH = 100%]
Pressure (altimeter): 30.09 inches Hg (1019.0 mb)
Winds: variable direction winds at 2 MPH (2 knots; 1.0 m/s)
Visibility: 6 or more miles (10+ km)
Ceiling: 4600 feet AGL
Clouds: broken clouds at 4600 feet AGL
Weather: -SHRA  (light rain showers)

METAR text: UMMS 200200Z 15002MPS 040V180 9999 -SHRA BKN026CB 18/18 Q1020 R31L/290050 NOSIG
Conditions at: UMMS (MINSK , BY) observed 0200 UTC 20 August 2019
Temperature: 18.0°C (64°F)
Dewpoint: 18.0°C (64°F) [RH = 100%]
Pressure (altimeter): 30.12 inches Hg (1020.0 mb)
Winds: from the SSE (150 degrees) at 5 MPH (4 knots; 2.1 m/s)
Visibility: 6 or more miles (10+ km)
Ceiling: 2600 feet AGL
Clouds: broken clouds at 2600 feet AGL
Weather: -SHRA  (light rain showers)

Forecast for: UMMS (MINSK , BY)
Text: TAF UMMS 211108Z 2112/2212 18006G11MPS 9999 BKN020
Forecast period: 1200 to 1500 UTC 21 August 2019
Forecast type: FROM: standard forecast or significant change
Winds: from the S (180 degrees) at 14 MPH (12 knots; 6.2 m/s)
gusting to 24 MPH (21 knots; 10.8 m/s)
Visibility: 6 or more miles 10+ km)
Ceiling: 2000 feet AGL
Clouds: broken clouds at 2000 feet AGL
Weather: no significant weather forecast for this period
Text: TEMPO 2112/2115 20009G14MPS 1500 TSRA BKN004 BKN020CB
Forecast period: 1200 to 1500 UTC 21 August 2019
Forecast type: TEMPORARY: The following changes expected for less than half the time period
Winds: from the SSW (200 degrees) at 20 MPH (17 knots; 8.7 m/s)
gusting to 31 MPH (27 knots; 13.9 m/s)
Visibility: 0.93 miles (1.50 km)
Ceiling: 400 feet AGL
Clouds: broken clouds at 400 feet AGL
broken clouds at 2000 feet AGL
Weather: TSRA  (rain associated with thunderstorm(s))
Text: FM211500 32006G11MPS 9999 BKN010
Forecast period: 1500 UTC 21 August 2019 to 0600 UTC 22 August 2019
Forecast type: FROM: standard forecast or significant change
Winds: from the NW (320 degrees) at 14 MPH (12 knots; 6.2 m/s)
gusting to 24 MPH (21 knots; 10.8 m/s)
Visibility: 6 or more miles 10+ km)
Ceiling: 1000 feet AGL
Clouds: broken clouds at 1000 feet AGL
Weather: no significant weather forecast for this period
Text: TEMPO 2115/2120 34009G14MPS 0500 +TSRA BKN003 BKN020CB
Forecast period: 1500 to 2000 UTC 21 August 2019
Forecast type: TEMPORARY: The following changes expected for less than half the time period
Winds: from the NNW (340 degrees) at 20 MPH (17 knots; 8.7 m/s)
gusting to 31 MPH (27 knots; 13.9 m/s)
Visibility: 0.31 miles (0.50 km)
Ceiling: 300 feet AGL
Clouds: broken clouds at 300 feet AGL
broken clouds at 2000 feet AGL
Weather: +TSRA  (heavy rain associated with thunderstorm(s))
Text: TEMPO 2120/2206 1200 BCFG BR BKN003
Forecast period: 2000 UTC 21 August 2019 to 0600 UTC 22 August 2019
Forecast type: TEMPORARY: The following changes expected for less than half the time period
Visibility: 0.75 miles (1.21 km)
Ceiling: 300 feet AGL
Clouds: broken clouds at 300 feet AGL
Weather: BCFG BR  (patches of fog, mist)
Text: BECMG 2206/2207 36006G11MPS SCT020
Forecast period: 0600 to 1200 UTC 22 August 2019
Forecast type: BECOMING: Conditions expected to become as follows by 0700 UTC 22 August 2019
Winds: from the N (360 degrees) at 14 MPH (12 knots; 6.2 m/s)
gusting to 24 MPH (21 knots; 10.8 m/s)
Visibility: 6 or more miles 10+ km)
Ceiling: at least 12,000 feet AGL
Clouds: scattered clouds at 2000 feet AGL
Weather: no significant weather forecast for this period